sensor_id;sensor_type;location;lat;lon;timestamp;P1;durP1;ratioP1;P2;durP2;ratioP2
78844;SDS011;68195;50.854;2.860;2024-02-15T00:01:33;6.97;;;3.05;;
78844;SDS011;68195;50.854;2.860;2024-02-15T00:03:59;11.23;;;3.45;;
78844;SDS011;68195;50.854;2.860;2024-02-15T00:06:24;6.55;;;2.60;;
78844;SDS011;68195;50.854;2.860;2024-02-15T00:08:52;9.05;;;3.00;;
78844;SDS011;68195;50.854;2.860;2024-02-15T00:11:17;7.10;;;3.00;;
78844;SDS011;68195;50.854;2.860;2024-02-15T00:16:14;6.97;;;2.45;;
78844;SDS011;68195;50.854;2.860;2024-02-15T00:18:40;6.50;;;3.17;;
78844;SDS011;68195;50.854;2.860;2024-02-15T00:21:07;10.20;;;2.92;;
78844;SDS011;68195;50.854;2.860;2024-02-15T00:25:58;9.47;;;3.27;;
78844;SDS011;68195;50.854;2.860;2024-02-15T00:30:51;7.63;;;3.70;;
78844;SDS011;68195;50.854;2.860;2024-02-15T00:33:21;5.55;;;2.58;;
78844;SDS011;68195;50.854;2.860;2024-02-15T00:35:47;5.47;;;2.78;;
78844;SDS011;68195;50.854;2.860;2024-02-15T00:38:19;7.00;;;2.80;;
78844;SDS011;68195;50.854;2.860;2024-02-15T00:40:44;7.82;;;3.22;;
78844;SDS011;68195;50.854;2.860;2024-02-15T00:43:13;8.52;;;3.35;;
78844;SDS011;68195;50.854;2.860;2024-02-15T00:45:39;8.20;;;2.47;;
78844;SDS011;68195;50.854;2.860;2024-02-15T00:48:10;5.85;;;2.53;;
78844;SDS011;68195;50.854;2.860;2024-02-15T00:50:35;5.10;;;2.97;;
78844;SDS011;68195;50.854;2.860;2024-02-15T00:53:00;5.43;;;2.67;;
78844;SDS011;68195;50.854;2.860;2024-02-15T00:57:51;6.43;;;2.67;;
78844;SDS011;68195;50.854;2.860;2024-02-15T01:00:19;9.65;;;3.13;;
78844;SDS011;68195;50.854;2.860;2024-02-15T01:02:51;9.98;;;2.92;;
78844;SDS011;68195;50.854;2.860;2024-02-15T01:05:18;5.55;;;2.42;;
78844;SDS011;68195;50.854;2.860;2024-02-15T01:07:49;6.00;;;2.60;;
78844;SDS011;68195;50.854;2.860;2024-02-15T01:10:17;6.82;;;3.03;;
78844;SDS011;68195;50.854;2.860;2024-02-15T01:12:45;5.97;;;3.17;;
78844;SDS011;68195;50.854;2.860;2024-02-15T01:15:10;4.97;;;2.72;;
78844;SDS011;68195;50.854;2.860;2024-02-15T01:17:38;5.28;;;2.80;;
78844;SDS011;68195;50.854;2.860;2024-02-15T01:20:04;7.95;;;3.30;;
78844;SDS011;68195;50.854;2.860;2024-02-15T01:22:32;6.80;;;2.85;;
78844;SDS011;68195;50.854;2.860;2024-02-15T01:25:03;6.43;;;2.85;;
78844;SDS011;68195;50.854;2.860;2024-02-15T01:27:29;7.60;;;2.60;;
78844;SDS011;68195;50.854;2.860;2024-02-15T01:32:20;7.57;;;2.17;;
78844;SDS011;68195;50.854;2.860;2024-02-15T01:34:47;6.70;;;2.95;;
78844;SDS011;68195;50.854;2.860;2024-02-15T01:37:18;6.22;;;2.45;;
78844;SDS011;68195;50.854;2.860;2024-02-15T01:39:46;5.10;;;2.25;;
78844;SDS011;68195;50.854;2.860;2024-02-15T01:44:39;4.07;;;2.40;;
78844;SDS011;68195;50.854;2.860;2024-02-15T01:47:05;6.75;;;2.40;;
78844;SDS011;68195;50.854;2.860;2024-02-15T01:51:57;4.40;;;2.38;;
78844;SDS011;68195;50.854;2.860;2024-02-15T01:54:26;4.90;;;2.50;;
78844;SDS011;68195;50.854;2.860;2024-02-15T01:56:54;3.25;;;2.00;;
78844;SDS011;68195;50.854;2.860;2024-02-15T01:59:21;7.05;;;2.75;;
78844;SDS011;68195;50.854;2.860;2024-02-15T02:01:48;7.07;;;2.40;;
78844;SDS011;68195;50.854;2.860;2024-02-15T02:04:14;5.75;;;2.70;;
78844;SDS011;68195;50.854;2.860;2024-02-15T02:06:42;7.13;;;2.38;;
78844;SDS011;68195;50.854;2.860;2024-02-15T02:09:10;8.25;;;2.80;;
78844;SDS011;68195;50.854;2.860;2024-02-15T02:11:40;8.30;;;2.67;;
78844;SDS011;68195;50.854;2.860;2024-02-15T02:14:11;5.72;;;2.45;;
78844;SDS011;68195;50.854;2.860;2024-02-15T02:19:04;9.90;;;2.75;;
78844;SDS011;68195;50.854;2.860;2024-02-15T02:21:34;4.10;;;2.28;;
78844;SDS011;68195;50.854;2.860;2024-02-15T02:24:01;4.65;;;2.50;;
78844;SDS011;68195;50.854;2.860;2024-02-15T02:26:31;5.93;;;2.28;;
78844;SDS011;68195;50.854;2.860;2024-02-15T02:31:24;7.05;;;2.55;;
78844;SDS011;68195;50.854;2.860;2024-02-15T02:36:19;6.97;;;2.50;;
78844;SDS011;68195;50.854;2.860;2024-02-15T02:38:47;5.78;;;3.13;;
78844;SDS011;68195;50.854;2.860;2024-02-15T02:41:16;5.35;;;2.45;;
78844;SDS011;68195;50.854;2.860;2024-02-15T02:43:44;6.53;;;2.40;;
78844;SDS011;68195;50.854;2.860;2024-02-15T02:46:10;6.93;;;2.83;;
78844;SDS011;68195;50.854;2.860;2024-02-15T02:48:36;4.60;;;2.70;;
78844;SDS011;68195;50.854;2.860;2024-02-15T02:51:06;5.47;;;2.90;;
78844;SDS011;68195;50.854;2.860;2024-02-15T02:53:32;6.97;;;2.95;;
78844;SDS011;68195;50.854;2.860;2024-02-15T02:56:03;7.78;;;2.53;;
78844;SDS011;68195;50.854;2.860;2024-02-15T02:58:29;5.55;;;2.95;;
78844;SDS011;68195;50.854;2.860;2024-02-15T03:00:57;7.72;;;2.50;;
78844;SDS011;68195;50.854;2.860;2024-02-15T03:03:25;8.20;;;3.00;;
78844;SDS011;68195;50.854;2.860;2024-02-15T03:05:51;6.88;;;2.35;;
78844;SDS011;68195;50.854;2.860;2024-02-15T03:10:45;6.40;;;2.75;;
78844;SDS011;68195;50.854;2.860;2024-02-15T03:13:13;3.97;;;2.03;;
78844;SDS011;68195;50.854;2.860;2024-02-15T03:15:38;6.57;;;2.45;;
78844;SDS011;68195;50.854;2.860;2024-02-15T03:18:06;9.57;;;2.97;;
78844;SDS011;68195;50.854;2.860;2024-02-15T03:20:32;6.82;;;2.65;;
78844;SDS011;68195;50.854;2.860;2024-02-15T03:23:00;4.55;;;2.47;;
78844;SDS011;68195;50.854;2.860;2024-02-15T03:25:28;3.78;;;2.58;;
78844;SDS011;68195;50.854;2.860;2024-02-15T03:27:54;5.00;;;2.42;;
78844;SDS011;68195;50.854;2.860;2024-02-15T03:30:22;6.65;;;2.53;;
78844;SDS011;68195;50.854;2.860;2024-02-15T03:32:58;7.63;;;2.80;;
78844;SDS011;68195;50.854;2.860;2024-02-15T03:35:24;5.97;;;3.10;;
78844;SDS011;68195;50.854;2.860;2024-02-15T03:37:51;9.93;;;3.22;;
78844;SDS011;68195;50.854;2.860;2024-02-15T03:40:19;6.47;;;2.67;;
78844;SDS011;68195;50.854;2.860;2024-02-15T03:42:52;6.30;;;2.35;;
78844;SDS011;68195;50.854;2.860;2024-02-15T03:45:20;6.05;;;2.65;;
78844;SDS011;68195;50.854;2.860;2024-02-15T03:47:52;7.45;;;3.80;;
78844;SDS011;68195;50.854;2.860;2024-02-15T03:50:20;5.82;;;2.83;;
78844;SDS011;68195;50.854;2.860;2024-02-15T03:52:49;6.35;;;2.83;;
78844;SDS011;68195;50.854;2.860;2024-02-15T03:55:16;6.88;;;3.00;;
78844;SDS011;68195;50.854;2.860;2024-02-15T04:00:11;6.10;;;2.63;;
78844;SDS011;68195;50.854;2.860;2024-02-15T04:02:39;6.72;;;3.00;;
78844;SDS011;68195;50.854;2.860;2024-02-15T04:05:07;5.45;;;2.42;;
78844;SDS011;68195;50.854;2.860;2024-02-15T04:07:34;6.13;;;3.17;;
78844;SDS011;68195;50.854;2.860;2024-02-15T04:10:02;6.05;;;2.88;;
78844;SDS011;68195;50.854;2.860;2024-02-15T04:12:31;5.03;;;2.63;;
78844;SDS011;68195;50.854;2.860;2024-02-15T04:14:57;4.90;;;2.85;;
78844;SDS011;68195;50.854;2.860;2024-02-15T04:17:30;7.05;;;2.67;;
78844;SDS011;68195;50.854;2.860;2024-02-15T04:19:57;5.22;;;2.25;;
78844;SDS011;68195;50.854;2.860;2024-02-15T04:22:25;3.30;;;2.50;;
78844;SDS011;68195;50.854;2.860;2024-02-15T04:24:50;7.03;;;2.75;;
78844;SDS011;68195;50.854;2.860;2024-02-15T04:27:18;4.93;;;2.70;;
78844;SDS011;68195;50.854;2.860;2024-02-15T04:29:48;5.35;;;2.58;;
78844;SDS011;68195;50.854;2.860;2024-02-15T04:32:15;5.95;;;2.75;;
78844;SDS011;68195;50.854;2.860;2024-02-15T04:34:40;4.60;;;3.50;;
78844;SDS011;68195;50.854;2.860;2024-02-15T04:37:06;5.47;;;2.83;;
78844;SDS011;68195;50.854;2.860;2024-02-15T04:39:36;5.85;;;2.40;;
78844;SDS011;68195;50.854;2.860;2024-02-15T04:42:02;5.50;;;2.83;;
78844;SDS011;68195;50.854;2.860;2024-02-15T04:44:31;5.05;;;2.70;;
78844;SDS011;68195;50.854;2.860;2024-02-15T04:47:02;5.45;;;2.75;;
78844;SDS011;68195;50.854;2.860;2024-02-15T04:49:30;6.78;;;2.80;;
78844;SDS011;68195;50.854;2.860;2024-02-15T04:54:29;4.85;;;2.65;;
78844;SDS011;68195;50.854;2.860;2024-02-15T04:56:56;6.40;;;2.80;;
78844;SDS011;68195;50.854;2.860;2024-02-15T05:01:50;5.43;;;2.15;;
78844;SDS011;68195;50.854;2.860;2024-02-15T05:04:17;5.28;;;2.55;;
78844;SDS011;68195;50.854;2.860;2024-02-15T05:06:43;6.53;;;2.35;;
78844;SDS011;68195;50.854;2.860;2024-02-15T05:09:10;4.55;;;2.40;;
78844;SDS011;68195;50.854;2.860;2024-02-15T05:11:38;5.97;;;2.63;;
78844;SDS011;68195;50.854;2.860;2024-02-15T05:14:06;4.00;;;2.70;;
78844;SDS011;68195;50.854;2.860;2024-02-15T05:16:33;5.75;;;3.10;;
78844;SDS011;68195;50.854;2.860;2024-02-15T05:18:59;5.80;;;2.83;;
78844;SDS011;68195;50.854;2.860;2024-02-15T05:21:28;7.38;;;3.05;;
78844;SDS011;68195;50.854;2.860;2024-02-15T05:23:56;8.23;;;3.28;;
78844;SDS011;68195;50.854;2.860;2024-02-15T05:28:51;5.55;;;2.42;;
78844;SDS011;68195;50.854;2.860;2024-02-15T05:33:44;6.45;;;3.45;;
78844;SDS011;68195;50.854;2.860;2024-02-15T05:36:12;4.35;;;2.65;;
78844;SDS011;68195;50.854;2.860;2024-02-15T05:38:39;6.68;;;2.47;;
78844;SDS011;68195;50.854;2.860;2024-02-15T05:41:12;7.07;;;2.75;;
78844;SDS011;68195;50.854;2.860;2024-02-15T05:43:38;7.35;;;2.63;;
78844;SDS011;68195;50.854;2.860;2024-02-15T05:46:09;3.90;;;2.85;;
78844;SDS011;68195;50.854;2.860;2024-02-15T05:48:37;8.40;;;2.85;;
78844;SDS011;68195;50.854;2.860;2024-02-15T05:51:08;6.55;;;3.10;;
78844;SDS011;68195;50.854;2.860;2024-02-15T05:56:04;5.80;;;3.28;;
78844;SDS011;68195;50.854;2.860;2024-02-15T05:58:37;7.30;;;4.05;;
78844;SDS011;68195;50.854;2.860;2024-02-15T06:01:04;7.97;;;2.95;;
78844;SDS011;68195;50.854;2.860;2024-02-15T06:03:38;8.75;;;3.45;;
78844;SDS011;68195;50.854;2.860;2024-02-15T06:06:07;6.07;;;3.38;;
78844;SDS011;68195;50.854;2.860;2024-02-15T06:08:33;6.68;;;3.50;;
78844;SDS011;68195;50.854;2.860;2024-02-15T06:10:59;4.75;;;2.70;;
78844;SDS011;68195;50.854;2.860;2024-02-15T06:15:51;4.57;;;2.92;;
78844;SDS011;68195;50.854;2.860;2024-02-15T06:18:22;9.25;;;3.50;;
78844;SDS011;68195;50.854;2.860;2024-02-15T06:20:53;6.88;;;2.95;;
78844;SDS011;68195;50.854;2.860;2024-02-15T06:23:25;6.60;;;3.30;;
78844;SDS011;68195;50.854;2.860;2024-02-15T06:25:52;7.80;;;3.45;;
78844;SDS011;68195;50.854;2.860;2024-02-15T06:28:21;6.97;;;3.45;;
78844;SDS011;68195;50.854;2.860;2024-02-15T06:31:08;6.75;;;3.70;;
78844;SDS011;68195;50.854;2.860;2024-02-15T06:33:52;8.90;;;3.45;;
78844;SDS011;68195;50.854;2.860;2024-02-15T06:39:49;4.90;;;2.70;;
78844;SDS011;68195;50.854;2.860;2024-02-15T06:42:15;4.50;;;2.63;;
78844;SDS011;68195;50.854;2.860;2024-02-15T06:44:43;5.35;;;3.55;;
78844;SDS011;68195;50.854;2.860;2024-02-15T06:47:12;6.65;;;3.05;;
78844;SDS011;68195;50.854;2.860;2024-02-15T06:49:38;5.38;;;2.95;;
78844;SDS011;68195;50.854;2.860;2024-02-15T06:52:11;6.50;;;3.53;;
78844;SDS011;68195;50.854;2.860;2024-02-15T06:54:37;9.32;;;3.50;;
78844;SDS011;68195;50.854;2.860;2024-02-15T06:57:03;6.32;;;3.42;;
78844;SDS011;68195;50.854;2.860;2024-02-15T06:59:32;5.13;;;3.42;;
78844;SDS011;68195;50.854;2.860;2024-02-15T07:04:23;6.30;;;3.30;;
78844;SDS011;68195;50.854;2.860;2024-02-15T07:06:51;7.35;;;3.67;;
78844;SDS011;68195;50.854;2.860;2024-02-15T07:09:20;7.05;;;3.90;;
78844;SDS011;68195;50.854;2.860;2024-02-15T07:11:48;7.85;;;4.78;;
78844;SDS011;68195;50.854;2.860;2024-02-15T07:14:15;6.20;;;3.70;;
78844;SDS011;68195;50.854;2.860;2024-02-15T07:19:11;11.13;;;5.18;;
78844;SDS011;68195;50.854;2.860;2024-02-15T07:21:36;10.15;;;4.50;;
78844;SDS011;68195;50.854;2.860;2024-02-15T07:26:29;10.77;;;4.35;;
78844;SDS011;68195;50.854;2.860;2024-02-15T07:28:55;7.57;;;4.57;;
78844;SDS011;68195;50.854;2.860;2024-02-15T07:31:28;7.80;;;4.28;;
78844;SDS011;68195;50.854;2.860;2024-02-15T07:33:59;10.77;;;4.97;;
78844;SDS011;68195;50.854;2.860;2024-02-15T07:36:25;7.70;;;4.47;;
78844;SDS011;68195;50.854;2.860;2024-02-15T07:38:51;9.95;;;4.47;;
78844;SDS011;68195;50.854;2.860;2024-02-15T07:41:18;10.65;;;5.25;;
78844;SDS011;68195;50.854;2.860;2024-02-15T07:43:49;8.23;;;4.22;;
78844;SDS011;68195;50.854;2.860;2024-02-15T07:46:15;9.05;;;4.57;;
78844;SDS011;68195;50.854;2.860;2024-02-15T07:48:44;13.13;;;4.53;;
78844;SDS011;68195;50.854;2.860;2024-02-15T07:51:13;8.55;;;4.72;;
78844;SDS011;68195;50.854;2.860;2024-02-15T07:53:44;9.82;;;5.22;;
78844;SDS011;68195;50.854;2.860;2024-02-15T07:58:48;10.77;;;5.95;;
78844;SDS011;68195;50.854;2.860;2024-02-15T08:01:14;13.50;;;4.90;;
78844;SDS011;68195;50.854;2.860;2024-02-15T08:03:41;6.05;;;4.55;;
78844;SDS011;68195;50.854;2.860;2024-02-15T08:06:10;8.90;;;4.45;;
78844;SDS011;68195;50.854;2.860;2024-02-15T08:08:40;6.38;;;3.95;;
78844;SDS011;68195;50.854;2.860;2024-02-15T08:11:14;6.43;;;4.28;;
78844;SDS011;68195;50.854;2.860;2024-02-15T08:13:46;10.63;;;4.43;;
78844;SDS011;68195;50.854;2.860;2024-02-15T08:16:23;12.63;;;4.53;;
78844;SDS011;68195;50.854;2.860;2024-02-15T08:18:51;10.10;;;4.15;;
78844;SDS011;68195;50.854;2.860;2024-02-15T08:21:29;7.88;;;4.13;;
78844;SDS011;68195;50.854;2.860;2024-02-15T08:23:59;9.30;;;3.30;;
78844;SDS011;68195;50.854;2.860;2024-02-15T08:26:26;7.82;;;3.97;;
78844;SDS011;68195;50.854;2.860;2024-02-15T08:31:20;14.73;;;4.53;;
78844;SDS011;68195;50.854;2.860;2024-02-15T08:36:13;6.13;;;3.83;;
78844;SDS011;68195;50.854;2.860;2024-02-15T08:38:41;8.27;;;3.40;;
78844;SDS011;68195;50.854;2.860;2024-02-15T08:41:07;8.15;;;3.67;;
78844;SDS011;68195;50.854;2.860;2024-02-15T08:45:59;6.97;;;3.33;;
78844;SDS011;68195;50.854;2.860;2024-02-15T08:48:26;6.30;;;3.17;;
78844;SDS011;68195;50.854;2.860;2024-02-15T08:50:52;6.72;;;3.33;;
78844;SDS011;68195;50.854;2.860;2024-02-15T08:53:18;6.60;;;3.72;;
78844;SDS011;68195;50.854;2.860;2024-02-15T08:55:49;4.85;;;3.13;;
78844;SDS011;68195;50.854;2.860;2024-02-15T08:58:14;6.47;;;3.45;;
78844;SDS011;68195;50.854;2.860;2024-02-15T09:00:42;4.85;;;2.55;;
78844;SDS011;68195;50.854;2.860;2024-02-15T09:03:11;6.82;;;2.80;;
78844;SDS011;68195;50.854;2.860;2024-02-15T09:05:40;7.82;;;3.00;;
78844;SDS011;68195;50.854;2.860;2024-02-15T09:08:10;7.50;;;3.03;;
78844;SDS011;68195;50.854;2.860;2024-02-15T09:10:35;5.22;;;2.65;;
78844;SDS011;68195;50.854;2.860;2024-02-15T09:13:04;5.40;;;3.03;;
78844;SDS011;68195;50.854;2.860;2024-02-15T09:15:31;6.28;;;3.15;;
78844;SDS011;68195;50.854;2.860;2024-02-15T09:20:23;5.68;;;2.63;;
78844;SDS011;68195;50.854;2.860;2024-02-15T09:22:55;4.43;;;2.60;;
78844;SDS011;68195;50.854;2.860;2024-02-15T09:25:23;5.38;;;2.72;;
78844;SDS011;68195;50.854;2.860;2024-02-15T09:30:14;5.57;;;2.58;;
78844;SDS011;68195;50.854;2.860;2024-02-15T09:32:43;4.88;;;2.83;;
78844;SDS011;68195;50.854;2.860;2024-02-15T09:35:09;6.28;;;3.40;;
78844;SDS011;68195;50.854;2.860;2024-02-15T09:37:46;6.32;;;2.65;;
78844;SDS011;68195;50.854;2.860;2024-02-15T09:40:17;5.93;;;2.35;;
78844;SDS011;68195;50.854;2.860;2024-02-15T09:42:44;5.20;;;2.70;;
78844;SDS011;68195;50.854;2.860;2024-02-15T09:45:10;5.05;;;2.83;;
78844;SDS011;68195;50.854;2.860;2024-02-15T09:47:41;5.00;;;2.72;;
78844;SDS011;68195;50.854;2.860;2024-02-15T09:52:36;4.70;;;2.30;;
78844;SDS011;68195;50.854;2.860;2024-02-15T09:55:04;5.45;;;2.70;;
78844;SDS011;68195;50.854;2.860;2024-02-15T09:57:38;4.25;;;2.00;;
78844;SDS011;68195;50.854;2.860;2024-02-15T10:00:04;5.88;;;2.40;;
78844;SDS011;68195;50.854;2.860;2024-02-15T10:02:32;3.78;;;2.50;;
78844;SDS011;68195;50.854;2.860;2024-02-15T10:05:01;4.95;;;3.35;;
78844;SDS011;68195;50.854;2.860;2024-02-15T10:07:29;4.38;;;2.58;;
78844;SDS011;68195;50.854;2.860;2024-02-15T10:12:20;5.50;;;2.63;;
78844;SDS011;68195;50.854;2.860;2024-02-15T10:17:15;5.47;;;2.50;;
78844;SDS011;68195;50.854;2.860;2024-02-15T10:19:43;6.13;;;2.50;;
78844;SDS011;68195;50.854;2.860;2024-02-15T10:24:52;4.50;;;2.67;;
78844;SDS011;68195;50.854;2.860;2024-02-15T10:27:35;4.32;;;2.42;;
78844;SDS011;68195;50.854;2.860;2024-02-15T10:30:24;4.28;;;2.20;;
78844;SDS011;68195;50.854;2.860;2024-02-15T10:32:52;4.20;;;2.10;;
78844;SDS011;68195;50.854;2.860;2024-02-15T10:35:21;4.80;;;2.55;;
78844;SDS011;68195;50.854;2.860;2024-02-15T10:40:16;3.53;;;2.15;;
78844;SDS011;68195;50.854;2.860;2024-02-15T10:42:43;4.60;;;2.45;;
78844;SDS011;68195;50.854;2.860;2024-02-15T10:45:15;3.72;;;2.40;;
78844;SDS011;68195;50.854;2.860;2024-02-15T10:47:44;4.32;;;2.15;;
78844;SDS011;68195;50.854;2.860;2024-02-15T10:50:11;5.03;;;2.00;;
78844;SDS011;68195;50.854;2.860;2024-02-15T10:55:13;6.45;;;2.30;;
78844;SDS011;68195;50.854;2.860;2024-02-15T10:57:45;5.20;;;2.58;;
78844;SDS011;68195;50.854;2.860;2024-02-15T11:00:13;3.83;;;2.50;;
78844;SDS011;68195;50.854;2.860;2024-02-15T11:02:51;3.28;;;1.88;;
78844;SDS011;68195;50.854;2.860;2024-02-15T11:05:31;6.60;;;2.13;;
78844;SDS011;68195;50.854;2.860;2024-02-15T11:08:03;5.10;;;2.00;;
78844;SDS011;68195;50.854;2.860;2024-02-15T11:10:33;3.83;;;2.08;;
78844;SDS011;68195;50.854;2.860;2024-02-15T11:13:00;2.78;;;1.95;;
78844;SDS011;68195;50.854;2.860;2024-02-15T11:18:00;3.10;;;1.88;;
78844;SDS011;68195;50.854;2.860;2024-02-15T11:22:58;4.80;;;1.83;;
78844;SDS011;68195;50.854;2.860;2024-02-15T11:25:34;2.38;;;1.77;;
78844;SDS011;68195;50.854;2.860;2024-02-15T11:30:48;3.05;;;1.90;;
78844;SDS011;68195;50.854;2.860;2024-02-15T11:36:11;4.93;;;2.05;;
78844;SDS011;68195;50.854;2.860;2024-02-15T11:38:40;4.82;;;1.95;;
78844;SDS011;68195;50.854;2.860;2024-02-15T11:41:09;4.97;;;2.00;;
78844;SDS011;68195;50.854;2.860;2024-02-15T11:48:39;3.17;;;2.20;;
78844;SDS011;68195;50.854;2.860;2024-02-15T11:53:36;3.72;;;2.00;;
78844;SDS011;68195;50.854;2.860;2024-02-15T11:56:02;4.10;;;1.92;;
78844;SDS011;68195;50.854;2.860;2024-02-15T11:58:30;3.60;;;1.80;;
78844;SDS011;68195;50.854;2.860;2024-02-15T12:01:10;4.53;;;2.10;;
78844;SDS011;68195;50.854;2.860;2024-02-15T12:03:55;4.03;;;1.90;;
78844;SDS011;68195;50.854;2.860;2024-02-15T12:06:39;5.53;;;2.10;;
78844;SDS011;68195;50.854;2.860;2024-02-15T12:12:10;4.93;;;2.45;;
78844;SDS011;68195;50.854;2.860;2024-02-15T12:14:58;3.97;;;2.03;;
78844;SDS011;68195;50.854;2.860;2024-02-15T12:17:46;5.22;;;2.00;;
78844;SDS011;68195;50.854;2.860;2024-02-15T12:20:30;6.50;;;2.60;;
78844;SDS011;68195;50.854;2.860;2024-02-15T12:22:57;3.53;;;2.00;;
78844;SDS011;68195;50.854;2.860;2024-02-15T12:25:25;4.43;;;1.88;;
78844;SDS011;68195;50.854;2.860;2024-02-15T12:27:54;3.53;;;2.00;;
78844;SDS011;68195;50.854;2.860;2024-02-15T12:30:24;4.47;;;2.47;;
78844;SDS011;68195;50.854;2.860;2024-02-15T12:32:52;5.85;;;2.15;;
78844;SDS011;68195;50.854;2.860;2024-02-15T12:35:35;3.20;;;1.90;;
78844;SDS011;68195;50.854;2.860;2024-02-15T12:40:37;4.93;;;2.10;;
78844;SDS011;68195;50.854;2.860;2024-02-15T12:43:06;6.60;;;2.05;;
78844;SDS011;68195;50.854;2.860;2024-02-15T12:45:35;3.63;;;1.83;;
78844;SDS011;68195;50.854;2.860;2024-02-15T12:48:03;5.03;;;1.90;;
78844;SDS011;68195;50.854;2.860;2024-02-15T12:50:30;3.15;;;1.88;;
78844;SDS011;68195;50.854;2.860;2024-02-15T12:52:57;5.15;;;1.90;;
78844;SDS011;68195;50.854;2.860;2024-02-15T12:57:56;4.88;;;1.92;;
78844;SDS011;68195;50.854;2.860;2024-02-15T13:02:54;3.90;;;2.10;;
78844;SDS011;68195;50.854;2.860;2024-02-15T13:05:21;3.78;;;2.03;;
78844;SDS011;68195;50.854;2.860;2024-02-15T13:07:50;6.15;;;2.15;;
78844;SDS011;68195;50.854;2.860;2024-02-15T13:10:27;4.00;;;1.83;;
78844;SDS011;68195;50.854;2.860;2024-02-15T13:12:59;4.95;;;2.13;;
78844;SDS011;68195;50.854;2.860;2024-02-15T13:15:27;5.75;;;2.03;;
78844;SDS011;68195;50.854;2.860;2024-02-15T13:18:00;5.43;;;2.15;;
78844;SDS011;68195;50.854;2.860;2024-02-15T13:20:26;6.53;;;2.13;;
78844;SDS011;68195;50.854;2.860;2024-02-15T13:23:09;3.60;;;1.75;;
78844;SDS011;68195;50.854;2.860;2024-02-15T13:25:47;3.70;;;1.88;;
78844;SDS011;68195;50.854;2.860;2024-02-15T13:28:14;5.00;;;2.10;;
78844;SDS011;68195;50.854;2.860;2024-02-15T13:33:16;6.97;;;1.80;;
78844;SDS011;68195;50.854;2.860;2024-02-15T13:35:41;4.93;;;2.00;;
78844;SDS011;68195;50.854;2.860;2024-02-15T13:40:41;4.97;;;2.13;;
78844;SDS011;68195;50.854;2.860;2024-02-15T13:43:07;4.00;;;1.95;;
78844;SDS011;68195;50.854;2.860;2024-02-15T13:45:41;5.75;;;1.98;;
78844;SDS011;68195;50.854;2.860;2024-02-15T13:50:34;4.97;;;1.85;;
78844;SDS011;68195;50.854;2.860;2024-02-15T13:53:00;2.45;;;1.45;;
78844;SDS011;68195;50.854;2.860;2024-02-15T13:55:27;2.53;;;1.65;;
78844;SDS011;68195;50.854;2.860;2024-02-15T13:57:53;7.13;;;1.80;;
78844;SDS011;68195;50.854;2.860;2024-02-15T14:00:25;3.63;;;1.60;;
78844;SDS011;68195;50.854;2.860;2024-02-15T14:02:58;4.88;;;1.80;;
78844;SDS011;68195;50.854;2.860;2024-02-15T14:05:28;4.70;;;1.83;;
78844;SDS011;68195;50.854;2.860;2024-02-15T14:07:56;2.80;;;1.63;;
78844;SDS011;68195;50.854;2.860;2024-02-15T14:10:25;3.72;;;1.75;;
78844;SDS011;68195;50.854;2.860;2024-02-15T14:12:53;2.75;;;2.03;;
78844;SDS011;68195;50.854;2.860;2024-02-15T14:15:29;3.97;;;2.10;;
78844;SDS011;68195;50.854;2.860;2024-02-15T14:17:55;4.10;;;2.42;;
78844;SDS011;68195;50.854;2.860;2024-02-15T14:20:28;2.88;;;1.70;;
78844;SDS011;68195;50.854;2.860;2024-02-15T14:22:54;3.50;;;2.30;;
78844;SDS011;68195;50.854;2.860;2024-02-15T14:25:30;3.85;;;2.22;;
78844;SDS011;68195;50.854;2.860;2024-02-15T14:27:56;3.35;;;1.67;;
78844;SDS011;68195;50.854;2.860;2024-02-15T14:30:23;6.05;;;1.80;;
78844;SDS011;68195;50.854;2.860;2024-02-15T14:35:36;6.43;;;2.10;;
78844;SDS011;68195;50.854;2.860;2024-02-15T14:38:04;3.65;;;2.03;;
78844;SDS011;68195;50.854;2.860;2024-02-15T14:40:35;4.78;;;1.95;;
78844;SDS011;68195;50.854;2.860;2024-02-15T14:43:01;3.58;;;2.03;;
78844;SDS011;68195;50.854;2.860;2024-02-15T14:45:27;4.25;;;1.80;;
78844;SDS011;68195;50.854;2.860;2024-02-15T14:47:54;6.88;;;2.15;;
78844;SDS011;68195;50.854;2.860;2024-02-15T14:50:23;2.60;;;1.73;;
78844;SDS011;68195;50.854;2.860;2024-02-15T14:52:50;3.22;;;2.00;;
78844;SDS011;68195;50.854;2.860;2024-02-15T14:55:18;3.17;;;1.80;;
78844;SDS011;68195;50.854;2.860;2024-02-15T14:57:47;3.50;;;1.80;;
78844;SDS011;68195;50.854;2.860;2024-02-15T15:02:44;4.13;;;1.63;;
78844;SDS011;68195;50.854;2.860;2024-02-15T15:05:14;4.55;;;2.28;;
78844;SDS011;68195;50.854;2.860;2024-02-15T15:07:58;3.80;;;1.85;;
78844;SDS011;68195;50.854;2.860;2024-02-15T15:10:44;3.60;;;2.22;;
78844;SDS011;68195;50.854;2.860;2024-02-15T15:13:39;3.78;;;2.08;;
78844;SDS011;68195;50.854;2.860;2024-02-15T15:16:07;4.65;;;1.90;;
78844;SDS011;68195;50.854;2.860;2024-02-15T15:18:32;5.45;;;2.25;;
78844;SDS011;68195;50.854;2.860;2024-02-15T15:21:04;5.15;;;2.75;;
78844;SDS011;68195;50.854;2.860;2024-02-15T15:23:30;8.15;;;2.25;;
78844;SDS011;68195;50.854;2.860;2024-02-15T15:25:56;5.00;;;2.40;;
78844;SDS011;68195;50.854;2.860;2024-02-15T15:28:27;5.53;;;2.33;;
78844;SDS011;68195;50.854;2.860;2024-02-15T15:30:53;3.47;;;2.25;;
78844;SDS011;68195;50.854;2.860;2024-02-15T15:35:48;2.72;;;1.70;;
78844;SDS011;68195;50.854;2.860;2024-02-15T15:38:16;3.10;;;1.77;;
78844;SDS011;68195;50.854;2.860;2024-02-15T15:43:07;3.75;;;2.08;;
78844;SDS011;68195;50.854;2.860;2024-02-15T15:45:36;2.70;;;1.88;;
78844;SDS011;68195;50.854;2.860;2024-02-15T15:48:01;2.55;;;1.90;;
78844;SDS011;68195;50.854;2.860;2024-02-15T15:50:31;3.63;;;1.80;;
78844;SDS011;68195;50.854;2.860;2024-02-15T15:53:01;3.47;;;1.90;;
78844;SDS011;68195;50.854;2.860;2024-02-15T15:55:29;3.17;;;2.00;;
78844;SDS011;68195;50.854;2.860;2024-02-15T16:00:21;3.13;;;1.98;;
78844;SDS011;68195;50.854;2.860;2024-02-15T16:02:49;5.95;;;2.45;;
78844;SDS011;68195;50.854;2.860;2024-02-15T16:05:17;4.53;;;2.20;;
78844;SDS011;68195;50.854;2.860;2024-02-15T16:07:45;3.80;;;2.20;;
78844;SDS011;68195;50.854;2.860;2024-02-15T16:10:16;4.93;;;2.58;;
78844;SDS011;68195;50.854;2.860;2024-02-15T16:12:43;3.28;;;2.05;;
78844;SDS011;68195;50.854;2.860;2024-02-15T16:17:38;5.15;;;1.98;;
78844;SDS011;68195;50.854;2.860;2024-02-15T16:20:04;5.55;;;1.92;;
78844;SDS011;68195;50.854;2.860;2024-02-15T16:22:33;5.35;;;2.10;;
78844;SDS011;68195;50.854;2.860;2024-02-15T16:24:59;2.95;;;1.77;;
78844;SDS011;68195;50.854;2.860;2024-02-15T16:27:32;3.85;;;2.35;;
78844;SDS011;68195;50.854;2.860;2024-02-15T16:29:58;2.78;;;1.95;;
78844;SDS011;68195;50.854;2.860;2024-02-15T16:34:49;3.78;;;2.30;;
78844;SDS011;68195;50.854;2.860;2024-02-15T16:37:17;4.25;;;2.42;;
78844;SDS011;68195;50.854;2.860;2024-02-15T16:39:43;5.32;;;2.38;;
78844;SDS011;68195;50.854;2.860;2024-02-15T16:44:36;5.18;;;2.35;;
78844;SDS011;68195;50.854;2.860;2024-02-15T16:47:05;5.28;;;2.65;;
78844;SDS011;68195;50.854;2.860;2024-02-15T16:49:30;5.60;;;2.78;;
78844;SDS011;68195;50.854;2.860;2024-02-15T16:54:23;4.97;;;2.53;;
78844;SDS011;68195;50.854;2.860;2024-02-15T16:56:50;4.00;;;2.55;;
78844;SDS011;68195;50.854;2.860;2024-02-15T16:59:18;6.07;;;3.00;;
78844;SDS011;68195;50.854;2.860;2024-02-15T17:04:13;4.20;;;2.58;;
78844;SDS011;68195;50.854;2.860;2024-02-15T17:06:40;5.10;;;3.35;;
78844;SDS011;68195;50.854;2.860;2024-02-15T17:09:08;4.85;;;2.80;;
78844;SDS011;68195;50.854;2.860;2024-02-15T17:11:40;4.97;;;2.50;;
78844;SDS011;68195;50.854;2.860;2024-02-15T17:16:33;7.38;;;4.53;;
78844;SDS011;68195;50.854;2.860;2024-02-15T17:18:59;10.13;;;4.32;;
78844;SDS011;68195;50.854;2.860;2024-02-15T17:21:27;5.63;;;3.25;;
78844;SDS011;68195;50.854;2.860;2024-02-15T17:23:59;6.50;;;2.97;;
78844;SDS011;68195;50.854;2.860;2024-02-15T17:28:51;4.63;;;2.92;;